Startpagina
METAR-TAF:

METAR-TAF

Vliegvelden :

Luchthaven Yaoundé Nsimalen Internationaal

Yaoundé, Kameroen

breedte: 03-50N, lengte: 011-31E, hoogte: 751 m

Actueel weer

Dit bericht is 54 minuten geleden gemaakt, om 23:00 UTC
Wind 4 kt uit het westzuidwesten, variërend tussen het zuidwesten en het westen
Temperatuur 22°C
Vochtigheid 100%
Druk 1016 hPa
Zicht: 6000 m
Verspreide wolken op 600 ft

METAR: FKYS 232300Z 25004KT 220V280 6000 SCT006 22/22 Q1016 BECMG BKN006

Tijdstip: 00:54 (23:54 UTC)

Verwachting

Dit bericht is 54 minuten geleden gemaakt, om 23:00 UTC
Verwachting geldig van 24 om 00 UTC tot 24 om 24 UTC
Wind 5 kt uit het westen
Zicht 10 km of meer
Gebroken wolken op 600 ft
Tijdelijke
van 24 om 03 UTC tot 24 om 06 UTC
Zicht: 2500 m
nevel
Wijzigt naar
van 24 om 07 UTC tot 24 om 09 UTC
Gebroken wolken op 1300 ft

TAF: FKYS 232300Z 2400/2424 26005KT 9999 BKN006 TEMPO 2403/2406 2500 BR BECMG 2407/2409 BKN013

Waarnemingen en weersverwachtingen van meer dan 4000 vliegvelden (METAR en TAF).

De beschikbare stations zijn de gele en rode punten op de kaart.

Ga met uw muis naar het station om de naam te zien.

Klik dan om waarnemingen en weersverwachtingen te zien.

kaart wijzigen: klik op de groene knoppen met een zwart kruis om in te zoomen, op de groene knop met een streepje om uit te zoomen of op de groene pijlen voor aangrenzende kaarten.


METAR-TAF: